createdAt,value
2018-12-27T00:01:33.283Z,44.73
2018-12-27T00:04:03.808Z,41.60
2018-12-27T00:06:32.917Z,40.43
2018-12-27T00:09:02.152Z,38.70
2018-12-27T00:11:31.376Z,37.27
2018-12-27T00:14:03.065Z,37.70
2018-12-27T00:16:32.325Z,37.50
2018-12-27T00:19:02.913Z,37.67
2018-12-27T00:21:32.051Z,37.13
2018-12-27T00:24:01.156Z,37.87
2018-12-27T00:26:30.246Z,34.40
2018-12-27T00:28:59.644Z,37.37
2018-12-27T00:31:28.812Z,36.17
2018-12-27T00:33:57.918Z,36.03
2018-12-27T00:36:27.489Z,36.17
2018-12-27T00:38:57.668Z,36.47
2018-12-27T00:41:26.776Z,36.83
2018-12-27T00:43:57.280Z,35.87
2018-12-27T00:46:28.571Z,36.37
2018-12-27T00:48:57.898Z,35.00
2018-12-27T00:51:27.036Z,35.00
2018-12-27T00:53:56.702Z,33.00
2018-12-27T00:56:26.595Z,34.70
2018-12-27T00:58:55.800Z,32.43
2018-12-27T01:01:25.463Z,32.60
2018-12-27T01:03:55.844Z,32.43
2018-12-27T01:06:24.988Z,32.63
2018-12-27T01:08:54.725Z,31.87
2018-12-27T01:11:23.858Z,31.33
2018-12-27T01:13:52.987Z,31.73
2018-12-27T01:16:22.086Z,30.33
2018-12-27T01:18:51.312Z,30.30
2018-12-27T01:21:21.773Z,29.13
2018-12-27T01:23:50.866Z,31.40
2018-12-27T01:26:19.992Z,30.43
2018-12-27T01:28:52.535Z,30.27
2018-12-27T01:31:21.426Z,30.87
2018-12-27T01:33:50.532Z,30.67
2018-12-27T01:36:19.686Z,28.73
2018-12-27T01:38:51.630Z,25.93
2018-12-27T01:41:20.994Z,38.10
2018-12-27T01:43:50.120Z,37.63
2018-12-27T01:46:19.212Z,35.77
2018-12-27T01:48:48.300Z,39.23
2018-12-27T01:51:17.452Z,38.77
2018-12-27T01:53:46.554Z,40.77
2018-12-27T01:56:15.744Z,39.47
2018-12-27T01:58:46.072Z,40.90
2018-12-27T02:01:15.164Z,41.70
2018-12-27T02:03:45.342Z,39.60
2018-12-27T02:06:14.501Z,40.27
2018-12-27T02:08:44.572Z,38.53
2018-12-27T02:11:13.936Z,39.13
2018-12-27T02:13:43.083Z,38.40
2018-12-27T02:16:14.233Z,38.97
2018-12-27T02:18:43.619Z,38.40
2018-12-27T02:21:13.543Z,37.40
2018-12-27T02:23:45.488Z,38.17
2018-12-27T02:26:14.598Z,38.03
2018-12-27T02:28:43.784Z,38.93
2018-12-27T02:31:12.903Z,39.93
2018-12-27T02:33:42.785Z,41.10
2018-12-27T02:36:11.914Z,43.17
2018-12-27T02:38:40.996Z,42.63
2018-12-27T02:41:10.083Z,44.50
2018-12-27T02:43:39.238Z,43.83
2018-12-27T02:46:11.665Z,43.73
2018-12-27T02:48:41.232Z,39.60
2018-12-27T02:51:10.376Z,44.37
2018-12-27T02:53:39.774Z,44.27
2018-12-27T02:56:09.204Z,40.73
2018-12-27T02:58:38.327Z,40.20
2018-12-27T03:01:09.702Z,36.07
2018-12-27T03:03:43.873Z,33.70
2018-12-27T03:06:09.664Z,52.47
2018-12-27T03:08:39.012Z,52.37
2018-12-27T03:11:08.612Z,49.73
2018-12-27T03:13:39.033Z,50.70
2018-12-27T03:16:08.154Z,51.13
2018-12-27T03:18:38.083Z,56.73
2018-12-27T03:21:08.274Z,53.43
2018-12-27T03:23:37.399Z,49.03
2018-12-27T03:26:06.510Z,44.67
2018-12-27T03:28:35.639Z,45.67
2018-12-27T03:31:04.753Z,43.93
2018-12-27T03:33:33.835Z,44.63
2018-12-27T03:36:02.986Z,40.77
2018-12-27T03:38:32.143Z,39.87
2018-12-27T03:41:01.312Z,41.37
2018-12-27T03:43:32.980Z,40.27
2018-12-27T03:46:02.859Z,40.10
2018-12-27T03:48:32.249Z,39.63
2018-12-27T03:51:01.351Z,37.63
2018-12-27T03:53:30.512Z,39.53
2018-12-27T03:55:59.635Z,38.43
2018-12-27T03:58:28.791Z,37.47
2018-12-27T04:00:57.892Z,39.27
2018-12-27T04:03:27.031Z,38.60
2018-12-27T04:05:56.135Z,38.37
2018-12-27T04:08:25.218Z,36.07
2018-12-27T04:10:56.710Z,38.33
2018-12-27T04:13:25.797Z,39.40
2018-12-27T04:15:54.904Z,37.80
2018-12-27T04:18:24.063Z,39.50
2018-12-27T04:20:54.259Z,37.63
2018-12-27T04:23:23.447Z,33.60
2018-12-27T04:25:52.891Z,35.03
2018-12-27T04:28:21.901Z,34.73
2018-12-27T04:30:51.113Z,31.67
2018-12-27T04:33:20.988Z,39.43
2018-12-27T04:35:53.030Z,47.63
2018-12-27T04:38:22.119Z,47.63
2018-12-27T04:40:51.978Z,49.97
2018-12-27T04:43:24.451Z,48.93
2018-12-27T04:45:54.292Z,51.53
2018-12-27T04:48:23.422Z,51.37
2018-12-27T04:50:53.239Z,49.10
2018-12-27T04:53:22.282Z,51.80
2018-12-27T04:55:51.531Z,51.50
2018-12-27T04:58:20.894Z,50.77
2018-12-27T05:00:52.914Z,53.27
2018-12-27T05:03:22.044Z,53.37
2018-12-27T05:05:51.400Z,52.97
2018-12-27T05:08:21.728Z,50.50
2018-12-27T05:10:52.308Z,51.90
2018-12-27T05:13:21.455Z,53.70
2018-12-27T05:15:53.969Z,51.80
2018-12-27T05:18:23.128Z,52.27
2018-12-27T05:20:52.239Z,52.07
2018-12-27T05:23:21.316Z,55.40
2018-12-27T05:25:50.663Z,50.13
2018-12-27T05:28:19.803Z,47.17
2018-12-27T05:30:48.900Z,50.30
2018-12-27T05:33:17.970Z,47.20
2018-12-27T05:35:46.992Z,43.77
2018-12-27T05:38:16.098Z,43.67
2018-12-27T05:40:48.284Z,41.77
2018-12-27T05:43:17.374Z,41.33
2018-12-27T05:45:46.730Z,38.40
2018-12-27T05:48:15.932Z,39.20
2018-12-27T05:50:44.961Z,50.00
2018-12-27T05:53:14.058Z,47.83
2018-12-27T05:55:43.912Z,48.60
2018-12-27T05:58:13.040Z,46.00
2018-12-27T06:00:43.740Z,49.87
2018-12-27T06:03:13.151Z,47.53
2018-12-27T06:05:42.193Z,47.80
2018-12-27T06:08:11.203Z,47.47
2018-12-27T06:10:40.235Z,45.13
2018-12-27T06:13:12.602Z,46.57
2018-12-27T06:15:44.332Z,45.20
2018-12-27T06:18:13.632Z,45.20
2018-12-27T06:20:43.032Z,46.17
2018-12-27T06:23:12.126Z,44.60
2018-12-27T06:25:43.255Z,44.00
2018-12-27T06:28:14.094Z,42.33
2018-12-27T06:30:45.712Z,43.23
2018-12-27T06:33:15.070Z,44.00
2018-12-27T06:35:47.763Z,42.57
2018-12-27T06:38:17.619Z,41.73
2018-12-27T06:40:46.707Z,42.40
2018-12-27T06:43:15.837Z,42.70
2018-12-27T06:45:44.865Z,41.50
2018-12-27T06:48:13.939Z,41.67
2018-12-27T06:50:43.093Z,40.60
2018-12-27T06:53:15.055Z,38.43
2018-12-27T06:55:43.950Z,39.33
2018-12-27T06:58:13.205Z,39.90
2018-12-27T07:00:42.348Z,37.43
2018-12-27T07:03:12.421Z,34.20
2018-12-27T07:05:42.077Z,35.00
2018-12-27T07:08:11.099Z,35.77
2018-12-27T07:10:40.394Z,34.23
2018-12-27T07:13:10.628Z,33.77
2018-12-27T07:15:39.942Z,29.23
2018-12-27T07:18:09.264Z,30.87
2018-12-27T07:20:38.391Z,41.03
2018-12-27T07:23:08.319Z,40.03
2018-12-27T07:25:38.215Z,38.30
2018-12-27T07:28:07.340Z,38.80
2018-12-27T07:30:37.202Z,39.03
2018-12-27T07:33:06.365Z,38.83
2018-12-27T07:35:35.813Z,42.17
2018-12-27T07:38:05.418Z,39.80
2018-12-27T07:40:34.517Z,40.50
2018-12-27T07:43:05.907Z,36.37
2018-12-27T07:45:35.721Z,39.63
2018-12-27T07:48:04.814Z,39.43
2018-12-27T07:50:33.941Z,36.83
2018-12-27T07:53:02.951Z,39.23
2018-12-27T07:55:32.226Z,38.87
2018-12-27T07:58:01.271Z,38.40
2018-12-27T08:00:30.395Z,36.33
2018-12-27T08:02:59.836Z,36.83
2018-12-27T08:05:28.885Z,36.37
2018-12-27T08:07:57.987Z,34.97
2018-12-27T08:10:27.065Z,35.67
2018-12-27T08:12:56.209Z,35.63
2018-12-27T08:15:25.300Z,35.23
2018-12-27T08:17:54.433Z,34.00
2018-12-27T08:20:24.321Z,34.67
2018-12-27T08:22:54.722Z,34.83
2018-12-27T08:25:23.817Z,35.10
2018-12-27T08:27:53.245Z,34.40
2018-12-27T08:30:24.356Z,36.20
2018-12-27T08:32:54.193Z,33.77
2018-12-27T08:35:23.586Z,34.67
2018-12-27T08:37:52.970Z,32.83
2018-12-27T08:40:21.987Z,33.40
2018-12-27T08:42:51.119Z,31.33
2018-12-27T08:45:20.209Z,31.17
2018-12-27T08:47:49.754Z,28.13
2018-12-27T08:50:19.142Z,28.97
2018-12-27T08:52:50.582Z,30.20
2018-12-27T08:55:23.811Z,28.03
2018-12-27T08:57:53.071Z,26.73
2018-12-27T09:00:22.667Z,27.23
2018-12-27T09:02:51.788Z,31.40
2018-12-27T09:05:20.896Z,31.40
2018-12-27T09:07:49.987Z,31.03
2018-12-27T09:10:19.351Z,31.67
2018-12-27T09:12:51.057Z,31.13
2018-12-27T09:15:20.179Z,32.37
2018-12-27T09:17:49.316Z,31.40
2018-12-27T09:20:19.797Z,33.20
2018-12-27T09:22:48.897Z,32.13
2018-12-27T09:25:18.039Z,32.57
2018-12-27T09:27:47.147Z,32.53
2018-12-27T09:30:16.284Z,31.23
2018-12-27T09:32:45.260Z,31.27
2018-12-27T09:35:15.579Z,31.03
2018-12-27T09:37:44.973Z,31.63
2018-12-27T09:40:14.372Z,29.00
2018-12-27T09:42:45.847Z,29.37
2018-12-27T09:45:14.953Z,29.97
2018-12-27T09:47:46.367Z,30.20
2018-12-27T09:50:15.394Z,29.73
2018-12-27T09:52:44.425Z,28.37
2018-12-27T09:55:13.555Z,28.33
2018-12-27T09:57:42.676Z,27.27
2018-12-27T10:00:12.825Z,28.27
2018-12-27T10:02:42.754Z,27.10
2018-12-27T10:05:12.153Z,27.50
2018-12-27T10:07:41.256Z,25.17
2018-12-27T10:10:10.396Z,26.00
2018-12-27T10:12:39.489Z,26.17
2018-12-27T10:15:09.453Z,25.23
2018-12-27T10:17:38.581Z,24.57
2018-12-27T10:20:07.969Z,23.73
2018-12-27T10:22:37.516Z,23.43
2018-12-27T10:25:06.818Z,23.37
2018-12-27T10:27:35.965Z,23.33
2018-12-27T10:30:05.485Z,22.77
2018-12-27T10:32:34.664Z,22.33
2018-12-27T10:35:03.791Z,21.20
2018-12-27T10:37:32.811Z,20.03
2018-12-27T10:40:01.939Z,21.20
2018-12-27T10:42:31.041Z,19.90
2018-12-27T10:45:00.505Z,20.53
2018-12-27T10:47:29.678Z,20.70
2018-12-27T10:49:58.844Z,19.60
2018-12-27T10:52:30.228Z,20.37
2018-12-27T10:54:59.364Z,21.30
2018-12-27T10:57:28.445Z,20.63
2018-12-27T10:59:57.600Z,21.53
2018-12-27T11:02:27.007Z,20.97
2018-12-27T11:04:57.491Z,21.57
2018-12-27T11:07:26.748Z,20.10
2018-12-27T11:09:55.848Z,21.03
2018-12-27T11:12:24.934Z,21.07
2018-12-27T11:14:57.316Z,20.03
2018-12-27T11:17:26.540Z,20.07
2018-12-27T11:19:55.499Z,17.57
2018-12-27T11:22:24.606Z,17.23
2018-12-27T11:24:56.424Z,20.03
2018-12-27T11:27:26.488Z,21.37
2018-12-27T11:29:55.507Z,21.07
2018-12-27T11:32:24.628Z,21.07
2018-12-27T11:34:55.713Z,20.13
2018-12-27T11:37:26.673Z,20.40
2018-12-27T11:39:55.751Z,19.27
2018-12-27T11:42:24.770Z,20.03
2018-12-27T11:44:54.764Z,19.93
2018-12-27T11:47:23.921Z,19.73
2018-12-27T11:49:53.203Z,19.33
2018-12-27T11:52:22.321Z,19.93
2018-12-27T11:54:53.177Z,17.00
2018-12-27T11:57:22.279Z,16.33
2018-12-27T11:59:52.146Z,16.80
2018-12-27T12:02:21.930Z,17.53
2018-12-27T12:04:50.995Z,16.93
2018-12-27T12:07:20.107Z,17.60
2018-12-27T12:09:49.504Z,17.13
2018-12-27T12:12:18.855Z,17.43
2018-12-27T12:14:49.260Z,17.63
2018-12-27T12:17:18.393Z,19.43
2018-12-27T12:19:51.238Z,19.63
2018-12-27T12:22:20.430Z,19.57
2018-12-27T12:24:49.584Z,19.03
2018-12-27T12:27:20.284Z,18.70
2018-12-27T12:29:49.892Z,17.90
2018-12-27T12:32:19.014Z,15.93
2018-12-27T12:34:48.126Z,15.93
2018-12-27T12:37:17.303Z,15.33
2018-12-27T12:39:47.394Z,15.30
2018-12-27T12:42:17.424Z,15.40
2018-12-27T12:44:46.552Z,15.53
2018-12-27T12:47:15.688Z,14.57
2018-12-27T12:49:45.894Z,17.77
2018-12-27T12:52:15.024Z,17.57
2018-12-27T12:54:46.855Z,17.00
2018-12-27T12:57:15.875Z,18.53
2018-12-27T12:59:44.995Z,17.87
2018-12-27T13:02:14.122Z,17.60
2018-12-27T13:04:43.735Z,18.10
2018-12-27T13:07:12.857Z,18.97
2018-12-27T13:09:43.117Z,15.73
2018-12-27T13:12:12.215Z,15.93
2018-12-27T13:14:41.327Z,15.27
2018-12-27T13:17:10.467Z,14.97
2018-12-27T13:19:39.571Z,16.30
2018-12-27T13:22:08.661Z,18.50
2018-12-27T13:24:37.789Z,18.97
2018-12-27T13:27:08.993Z,19.00
2018-12-27T13:29:38.103Z,19.37
2018-12-27T13:32:10.398Z,19.37
2018-12-27T13:34:39.508Z,18.93
2018-12-27T13:37:08.530Z,19.13
2018-12-27T13:39:37.575Z,20.60
2018-12-27T13:42:06.598Z,20.47
2018-12-27T13:44:38.113Z,19.17
2018-12-27T13:47:09.428Z,19.67
2018-12-27T13:49:38.566Z,15.27
2018-12-27T13:52:07.734Z,16.67
2018-12-27T13:54:36.889Z,14.57
2018-12-27T13:57:05.962Z,15.87
2018-12-27T13:59:37.224Z,15.17
2018-12-27T14:02:06.610Z,15.07
2018-12-27T14:04:36.180Z,18.23
2018-12-27T14:07:05.334Z,18.20
2018-12-27T14:09:34.576Z,18.73
2018-12-27T14:12:03.685Z,19.10
2018-12-27T14:14:32.724Z,18.70
2018-12-27T14:17:01.981Z,18.90
2018-12-27T14:19:31.088Z,19.50
2018-12-27T14:22:00.434Z,19.07
2018-12-27T14:24:29.708Z,19.10
2018-12-27T14:26:58.740Z,19.23
2018-12-27T14:29:28.362Z,19.90
2018-12-27T14:31:57.904Z,20.23
2018-12-27T14:34:27.011Z,19.23
2018-12-27T14:36:56.105Z,19.63
2018-12-27T14:39:26.791Z,19.90
2018-12-27T14:41:55.890Z,19.97
2018-12-27T14:44:24.969Z,20.70
2018-12-27T14:46:54.049Z,21.10
2018-12-27T14:49:23.169Z,21.00
2018-12-27T14:51:52.219Z,20.93
2018-12-27T14:54:21.293Z,20.40
2018-12-27T14:56:50.374Z,19.40
2018-12-27T14:59:19.485Z,20.80
2018-12-27T15:01:49.144Z,19.53
2018-12-27T15:04:19.230Z,20.43
2018-12-27T15:06:50.576Z,20.23
2018-12-27T15:09:22.572Z,21.17
2018-12-27T15:11:52.750Z,21.70
2018-12-27T15:14:21.867Z,21.40
2018-12-27T15:16:51.902Z,21.73
2018-12-27T15:19:20.996Z,22.83
2018-12-27T15:21:50.288Z,22.77
2018-12-27T15:24:21.504Z,23.33
2018-12-27T15:26:50.536Z,22.67
2018-12-27T15:29:20.050Z,21.90
2018-12-27T15:31:49.194Z,21.03
2018-12-27T15:34:18.310Z,20.77
2018-12-27T15:36:54.332Z,21.17
2018-12-27T15:39:19.634Z,21.37
2018-12-27T15:41:53.028Z,21.50
2018-12-27T15:44:22.448Z,20.97
2018-12-27T15:46:53.759Z,21.57
2018-12-27T15:49:22.793Z,21.03
2018-12-27T15:51:52.147Z,21.27
2018-12-27T15:54:23.457Z,21.13
2018-12-27T15:56:52.895Z,21.80
2018-12-27T15:59:21.991Z,21.87
2018-12-27T16:01:50.967Z,21.40
2018-12-27T16:04:20.600Z,21.00
2018-12-27T16:06:50.223Z,21.73
2018-12-27T16:09:22.069Z,23.87
2018-12-27T16:11:53.441Z,23.30
2018-12-27T16:14:23.585Z,22.97
2018-12-27T16:16:52.720Z,23.50
2018-12-27T16:19:21.804Z,22.10
2018-12-27T16:21:50.905Z,23.03
2018-12-27T16:24:20.155Z,22.43
2018-12-27T16:26:50.268Z,21.80
2018-12-27T16:29:20.063Z,23.23
2018-12-27T16:31:49.436Z,23.20
2018-12-27T16:34:19.761Z,23.13
2018-12-27T16:36:48.809Z,22.50
2018-12-27T16:39:19.458Z,22.17
2018-12-27T16:41:51.191Z,23.90
2018-12-27T16:44:20.569Z,24.77
2018-12-27T16:46:54.286Z,22.40
2018-12-27T16:49:23.418Z,22.80
2018-12-27T16:51:52.624Z,22.67
2018-12-27T16:54:21.739Z,22.80
2018-12-27T16:56:51.114Z,22.57
2018-12-27T16:59:21.169Z,23.60
2018-12-27T17:01:50.330Z,23.17
2018-12-27T17:04:19.559Z,23.53
2018-12-27T17:06:49.929Z,23.30
2018-12-27T17:09:20.282Z,23.00
2018-12-27T17:11:49.439Z,23.17
2018-12-27T17:14:18.468Z,23.90
2018-12-27T17:16:47.840Z,23.97
2018-12-27T17:19:16.864Z,23.70
2018-12-27T17:21:45.974Z,24.27
2018-12-27T17:24:15.350Z,23.23
2018-12-27T17:26:44.712Z,25.20
2018-12-27T17:29:13.835Z,24.13
2018-12-27T17:31:43.030Z,25.27
2018-12-27T17:34:12.131Z,25.23
2018-12-27T17:36:42.322Z,24.17
2018-12-27T17:39:11.860Z,23.77
2018-12-27T17:41:44.232Z,23.87
2018-12-27T17:44:14.260Z,24.30
2018-12-27T17:46:43.391Z,24.80
2018-12-27T17:49:15.831Z,24.13
2018-12-27T17:51:44.911Z,24.57
2018-12-27T17:54:14.803Z,25.00
2018-12-27T17:56:47.457Z,25.13
2018-12-27T17:59:16.551Z,24.00
2018-12-27T18:01:45.673Z,24.10
2018-12-27T18:04:17.402Z,24.00
2018-12-27T18:06:47.078Z,24.23
2018-12-27T18:09:16.226Z,24.43
2018-12-27T18:11:45.373Z,25.47
2018-12-27T18:14:14.533Z,26.40
2018-12-27T18:16:43.750Z,27.07
2018-12-27T18:19:13.108Z,27.63
2018-12-27T18:21:45.767Z,33.73
2018-12-27T18:24:15.172Z,30.27
2018-12-27T18:26:44.215Z,28.37
2018-12-27T18:29:13.348Z,27.10
2018-12-27T18:31:42.476Z,28.93
2018-12-27T18:34:11.596Z,25.47
2018-12-27T18:36:40.710Z,25.77
2018-12-27T18:39:09.848Z,24.90
2018-12-27T18:41:38.950Z,24.60
2018-12-27T18:44:08.274Z,24.63
2018-12-27T18:46:37.416Z,24.90
2018-12-27T18:49:10.849Z,29.97
2018-12-27T18:51:40.486Z,28.10
2018-12-27T18:54:09.563Z,27.43
2018-12-27T18:56:38.724Z,24.80
2018-12-27T18:59:08.305Z,27.37
2018-12-27T19:01:37.343Z,26.17
2018-12-27T19:04:06.453Z,26.53
2018-12-27T19:06:38.125Z,26.23
2018-12-27T19:09:08.498Z,21.40
2018-12-27T19:12:13.229Z,25.57
2018-12-27T19:14:46.165Z,27.50
2018-12-27T19:17:21.034Z,26.93
2018-12-27T19:19:50.546Z,26.60
2018-12-27T19:22:44.332Z,26.20
2018-12-27T19:25:13.448Z,27.20
2018-12-27T19:27:45.728Z,27.17
2018-12-27T19:30:15.095Z,27.53
2018-12-27T19:32:44.240Z,28.13
2018-12-27T19:35:15.718Z,29.07
2018-12-27T19:37:51.867Z,28.50
2018-12-27T19:40:15.691Z,29.53
2018-12-27T19:42:47.824Z,27.37
2018-12-27T19:45:16.929Z,29.30
2018-12-27T19:47:46.334Z,29.83
2018-12-27T19:50:15.350Z,28.67
2018-12-27T19:52:46.870Z,30.40
2018-12-27T19:55:16.139Z,30.30
2018-12-27T19:57:45.247Z,30.43
2018-12-27T20:00:14.367Z,31.03
2018-12-27T20:02:44.921Z,30.07
2018-12-27T20:05:14.011Z,29.57
2018-12-27T20:07:46.824Z,29.57
2018-12-27T20:10:19.099Z,30.83
2018-12-27T20:12:48.461Z,29.37
2018-12-27T20:15:17.790Z,28.93
2018-12-27T20:17:55.304Z,29.27
2018-12-27T20:20:24.691Z,29.70
2018-12-27T20:22:55.113Z,29.10
2018-12-27T20:25:24.201Z,28.37
2018-12-27T20:27:53.801Z,28.20
2018-12-27T20:30:22.981Z,27.20
2018-12-27T20:32:52.068Z,27.93
2018-12-27T20:35:21.147Z,28.27
2018-12-27T20:37:50.552Z,29.70
2018-12-27T20:40:19.647Z,30.63
2018-12-27T20:42:49.422Z,30.50
2018-12-27T20:45:18.558Z,31.87
2018-12-27T20:47:47.924Z,31.50
2018-12-27T20:50:17.027Z,29.97
2018-12-27T20:52:49.922Z,30.80
2018-12-27T20:55:19.022Z,29.83
2018-12-27T20:57:50.367Z,30.80
2018-12-27T21:00:21.388Z,30.10
2018-12-27T21:02:51.097Z,30.33
2018-12-27T21:05:22.016Z,30.93
2018-12-27T21:07:51.108Z,30.20
2018-12-27T21:10:20.432Z,29.73
2018-12-27T21:12:50.358Z,30.17
2018-12-27T21:15:23.197Z,28.70
2018-12-27T21:17:52.528Z,29.07
2018-12-27T21:20:22.639Z,28.40
2018-12-27T21:22:52.823Z,24.37
2018-12-27T21:25:21.871Z,36.33
2018-12-27T21:27:51.014Z,35.13
2018-12-27T21:30:20.119Z,36.73
2018-12-27T21:32:49.817Z,34.03
2018-12-27T21:35:20.289Z,35.13
2018-12-27T21:37:49.355Z,34.03
2018-12-27T21:40:18.461Z,33.90
2018-12-27T21:42:47.595Z,35.03
2018-12-27T21:45:16.724Z,34.13
2018-12-27T21:47:47.596Z,35.90
2018-12-27T21:50:19.148Z,35.13
2018-12-27T21:52:48.560Z,34.57
2018-12-27T21:55:17.927Z,35.60
2018-12-27T21:57:47.299Z,38.20
2018-12-27T22:00:16.441Z,38.27
2018-12-27T22:02:45.390Z,38.37
2018-12-27T22:05:14.829Z,37.27
2018-12-27T22:07:44.306Z,35.77
2018-12-27T22:10:13.396Z,38.43
2018-12-27T22:12:43.248Z,36.37
2018-12-27T22:15:12.536Z,38.87
2018-12-27T22:17:43.971Z,37.87
2018-12-27T22:20:15.408Z,37.27
2018-12-27T22:22:50.620Z,37.40
2018-12-27T22:25:19.724Z,37.30
2018-12-27T22:27:48.768Z,38.73
2018-12-27T22:30:18.015Z,36.23
2018-12-27T22:32:50.371Z,38.90
2018-12-27T22:35:19.462Z,38.40
2018-12-27T22:37:50.833Z,38.73
2018-12-27T22:40:19.930Z,39.00
2018-12-27T22:42:49.444Z,36.07
2018-12-27T22:45:18.630Z,33.27
2018-12-27T22:47:47.801Z,33.30
2018-12-27T22:50:16.915Z,31.93
2018-12-27T22:52:46.107Z,32.93
2018-12-27T22:55:15.186Z,31.37
2018-12-27T22:57:44.510Z,29.10
2018-12-27T23:00:21.307Z,46.43
2018-12-27T23:02:50.335Z,51.03
2018-12-27T23:05:19.437Z,48.37
2018-12-27T23:07:49.939Z,47.00
2018-12-27T23:10:19.042Z,47.53
2018-12-27T23:12:48.195Z,47.57
2018-12-27T23:15:17.413Z,45.50
2018-12-27T23:17:46.498Z,48.73
2018-12-27T23:20:15.506Z,45.33
2018-12-27T23:22:46.182Z,47.73
2018-12-27T23:25:15.348Z,47.27
2018-12-27T23:27:46.326Z,46.70
2018-12-27T23:30:15.456Z,46.27
2018-12-27T23:32:44.650Z,47.20
2018-12-27T23:35:13.766Z,48.03
2018-12-27T23:37:42.942Z,46.20
2018-12-27T23:40:12.057Z,47.23
2018-12-27T23:42:42.422Z,47.30
2018-12-27T23:45:11.477Z,47.40
2018-12-27T23:47:40.497Z,46.93
2018-12-27T23:50:09.628Z,44.57
2018-12-27T23:52:38.774Z,46.83
2018-12-27T23:55:07.937Z,45.80
2018-12-27T23:57:36.891Z,45.63
